createdAt,value
2022-12-03T00:00:43.535Z,24.53
2022-12-03T00:05:48.686Z,26.58
2022-12-03T00:10:43.541Z,26.87
2022-12-03T00:15:43.570Z,24.27
2022-12-03T00:20:43.578Z,26.33
2022-12-03T00:25:43.561Z,27.37
2022-12-03T00:30:43.614Z,26.37
2022-12-03T00:35:43.584Z,25.1
2022-12-03T00:40:43.552Z,26.24
2022-12-03T00:45:43.586Z,25.4
2022-12-03T00:50:43.556Z,25.32
2022-12-03T00:55:43.595Z,24.96
2022-12-03T01:00:43.582Z,25.24
2022-12-03T01:05:43.594Z,24.96
2022-12-03T01:10:43.562Z,24.79
2022-12-03T01:15:43.633Z,26.46
2022-12-03T01:20:43.565Z,25.35
2022-12-03T01:25:43.593Z,24.16
2022-12-03T01:30:43.571Z,24.5
2022-12-03T01:35:43.565Z,22.96
2022-12-03T01:40:43.577Z,25.1
2022-12-03T01:45:43.575Z,24.42
2022-12-03T01:50:43.592Z,24.44
2022-12-03T01:55:48.375Z,23.84
2022-12-03T02:00:43.604Z,23.84
2022-12-03T02:05:43.577Z,23.65
2022-12-03T02:10:43.597Z,23.98
2022-12-03T02:15:43.629Z,24.35
2022-12-03T02:20:43.614Z,24.35
2022-12-03T02:25:43.623Z,23.01
2022-12-03T02:30:43.618Z,23.6
2022-12-03T02:35:43.586Z,23.89
2022-12-03T02:40:43.589Z,24.61
2022-12-03T02:45:43.619Z,24.96
2022-12-03T02:50:43.596Z,23.58
2022-12-03T02:55:43.611Z,22.96
2022-12-03T03:00:43.751Z,23.36
2022-12-03T03:05:43.627Z,23.44
2022-12-03T03:10:43.638Z,23.93
2022-12-03T03:15:43.594Z,23.04
2022-12-03T03:20:43.631Z,23.41
2022-12-03T03:25:43.612Z,24.48
2022-12-03T03:30:43.649Z,23.73
2022-12-03T03:35:43.641Z,25.67
2022-12-03T03:40:43.652Z,24.09
2022-12-03T03:50:43.614Z,24.8
2022-12-03T03:55:43.659Z,23.23
2022-12-03T04:00:43.707Z,23.3
2022-12-03T04:05:43.655Z,20.37
2022-12-03T04:10:43.645Z,19.83
2022-12-03T04:20:43.617Z,19.81
2022-12-03T04:25:43.632Z,20.47
2022-12-03T04:35:43.695Z,20.87
2022-12-03T04:40:43.625Z,20.34
2022-12-03T04:45:43.685Z,21.21
2022-12-03T05:00:43.642Z,22.82
2022-12-03T05:05:43.649Z,23.25
2022-12-03T05:10:43.674Z,23.67
2022-12-03T05:15:43.653Z,24.07
2022-12-03T05:20:47.078Z,25.32
2022-12-03T05:30:43.836Z,25.26
2022-12-03T05:35:43.662Z,24.49
2022-12-03T05:40:43.676Z,24.22
2022-12-03T05:45:43.690Z,25.85
2022-12-03T05:50:43.708Z,25.17
2022-12-03T05:55:43.711Z,24.03
2022-12-03T06:00:43.664Z,24.42
2022-12-03T06:05:43.667Z,22.44
2022-12-03T06:10:43.665Z,23.7
2022-12-03T06:15:44.223Z,24.3
2022-12-03T06:20:43.663Z,25.2
2022-12-03T06:25:43.701Z,24.35
2022-12-03T06:30:43.686Z,24.31
2022-12-03T06:35:43.699Z,23.57
2022-12-03T06:40:43.669Z,24.29
2022-12-03T06:45:47.630Z,24.3
2022-12-03T06:50:43.674Z,25.04
2022-12-03T06:55:43.714Z,26.38
2022-12-03T07:00:43.718Z,26.94
2022-12-03T07:05:43.681Z,30.64
2022-12-03T07:10:43.682Z,34.27
2022-12-03T07:15:43.723Z,20.95
2022-12-03T07:20:43.714Z,20.83
2022-12-03T07:25:43.674Z,20.92
2022-12-03T07:30:43.689Z,21.23
2022-12-03T07:35:43.734Z,21.59
2022-12-03T07:40:43.749Z,23.5
2022-12-03T07:45:43.718Z,21.27
2022-12-03T07:50:43.741Z,21.62
2022-12-03T07:55:43.699Z,23.86
2022-12-03T08:00:43.727Z,25.79
2022-12-03T08:05:43.732Z,23.96
2022-12-03T08:10:43.733Z,21.87
2022-12-03T08:15:43.725Z,23.12
2022-12-03T08:20:43.735Z,22.66
2022-12-03T08:25:43.703Z,23.8
2022-12-03T08:30:43.739Z,21.01
2022-12-03T08:35:43.709Z,24.02
2022-12-03T08:40:43.763Z,23.04
2022-12-03T08:45:43.762Z,22.08
2022-12-03T08:50:43.720Z,21.5
2022-12-03T08:55:43.715Z,21.06
2022-12-03T09:00:43.739Z,24.71
2022-12-03T09:05:43.724Z,22.73
2022-12-03T09:10:43.723Z,20.67
2022-12-03T09:15:43.766Z,24
2022-12-03T09:20:43.731Z,22.49
2022-12-03T09:25:43.730Z,19.08
2022-12-03T09:30:43.771Z,20.52
2022-12-03T09:35:43.736Z,21.4
2022-12-03T09:40:43.723Z,22.43
2022-12-03T09:45:43.781Z,24.78
2022-12-03T09:50:43.761Z,20.71
2022-12-03T09:55:43.773Z,21.06
2022-12-03T10:00:43.767Z,23.33
2022-12-03T10:05:47.852Z,19.87
2022-12-03T10:10:43.794Z,20.95
2022-12-03T10:15:43.788Z,21.44
2022-12-03T10:20:43.750Z,21
2022-12-03T10:25:43.785Z,18.22
2022-12-03T10:30:43.792Z,19.39
2022-12-03T10:35:43.796Z,18.46
2022-12-03T10:40:43.815Z,19.06
2022-12-03T10:45:43.811Z,19.95
2022-12-03T10:50:43.776Z,17.98
2022-12-03T10:55:43.763Z,18.06
2022-12-03T11:00:43.765Z,17.53
2022-12-03T11:05:43.776Z,17.96
2022-12-03T11:10:43.776Z,17.13
2022-12-03T11:15:43.857Z,17.17
2022-12-03T11:20:43.800Z,17.05
2022-12-03T11:25:43.772Z,17.65
2022-12-03T11:30:43.817Z,18.01
2022-12-03T11:35:43.810Z,19.5
2022-12-03T11:40:43.779Z,18.72
2022-12-03T11:45:43.815Z,19.05
2022-12-03T11:50:43.806Z,17.91
2022-12-03T11:55:43.786Z,18.19
2022-12-03T12:00:43.797Z,18.51
2022-12-03T12:05:43.793Z,19.2
2022-12-03T12:10:43.793Z,17.85
2022-12-03T12:15:43.922Z,18.39
2022-12-03T12:20:43.842Z,16.93
2022-12-03T12:25:43.801Z,15.92
2022-12-03T12:30:43.856Z,17.65
2022-12-03T12:35:43.803Z,16.2
2022-12-03T12:40:43.799Z,16.21
2022-12-03T12:45:43.819Z,18.4
2022-12-03T12:50:43.804Z,18.29
2022-12-03T12:55:43.844Z,17.69
2022-12-03T13:00:43.922Z,16.04
2022-12-03T13:05:43.836Z,16.52
2022-12-03T13:10:43.822Z,19
2022-12-03T13:15:43.849Z,18.43
2022-12-03T13:20:43.856Z,19.29
2022-12-03T13:26:00.439Z,18.79
2022-12-03T13:30:43.834Z,20.52
2022-12-03T13:35:43.859Z,20.98
2022-12-03T13:40:43.838Z,21.13
2022-12-03T13:45:43.923Z,20.79
2022-12-03T13:50:43.837Z,21.61
2022-12-03T13:55:43.870Z,22.22
2022-12-03T14:00:43.904Z,23.31
2022-12-03T14:05:43.865Z,21.9
2022-12-03T14:10:43.832Z,23.69
2022-12-03T14:15:43.850Z,23.62
2022-12-03T14:20:43.849Z,21.71
2022-12-03T14:25:43.853Z,22.47
2022-12-03T14:30:43.856Z,24.22
2022-12-03T14:35:43.856Z,24.79
2022-12-03T14:40:43.887Z,27.97
2022-12-03T14:45:43.890Z,25.9
2022-12-03T14:50:43.888Z,28.03
2022-12-03T14:55:43.895Z,29.19
2022-12-03T15:00:43.927Z,28.63
2022-12-03T15:05:43.917Z,29.64
2022-12-03T15:10:43.895Z,28.79
2022-12-03T15:15:43.895Z,30.23
2022-12-03T15:20:43.929Z,29.73
2022-12-03T15:25:43.891Z,28.09
2022-12-03T15:30:43.920Z,28.76
2022-12-03T15:35:43.942Z,27.51
2022-12-03T15:40:43.934Z,30.09
2022-12-03T15:45:43.974Z,27.54
2022-12-03T15:50:43.912Z,25.79
2022-12-03T15:55:43.915Z,21.99
2022-12-03T16:00:43.902Z,25.73
2022-12-03T16:05:43.932Z,24.77
2022-12-03T16:10:43.914Z,22.88
2022-12-03T16:15:43.956Z,21.79
2022-12-03T16:20:43.914Z,22.37
2022-12-03T16:25:43.928Z,22.61
2022-12-03T16:30:43.967Z,19.75
2022-12-03T16:35:43.922Z,21.91
2022-12-03T16:40:43.928Z,22.41
2022-12-03T16:45:43.919Z,20.66
2022-12-03T16:50:43.931Z,23.94
2022-12-03T16:55:43.926Z,22
2022-12-03T17:00:43.933Z,21.19
2022-12-03T17:05:43.950Z,26.23
2022-12-03T17:10:44.062Z,30.51
2022-12-03T17:15:43.993Z,27.99
2022-12-03T17:20:43.964Z,25.86
2022-12-03T17:25:43.937Z,20.76
2022-12-03T17:30:43.975Z,22.81
2022-12-03T17:40:43.959Z,21.71
2022-12-03T17:45:43.951Z,22.33
2022-12-03T17:50:43.939Z,23.22
2022-12-03T17:55:45.102Z,21.17
2022-12-03T18:00:43.944Z,20.83
2022-12-03T18:05:43.957Z,21.45
2022-12-03T18:10:43.962Z,21.66
2022-12-03T18:15:44.028Z,21.03
2022-12-03T18:20:43.956Z,21.43
2022-12-03T18:25:43.969Z,21.15
2022-12-03T18:30:47.606Z,20.42
2022-12-03T18:35:43.976Z,21.01
2022-12-03T18:40:43.975Z,21.47
2022-12-03T18:45:43.956Z,19.38
2022-12-03T18:50:43.985Z,19.12
2022-12-03T18:55:43.987Z,18.79
2022-12-03T19:00:44.063Z,18.49
2022-12-03T19:05:44.015Z,17.51
2022-12-03T19:10:43.998Z,19.84
2022-12-03T19:15:43.973Z,20
2022-12-03T19:20:44.003Z,20.8
2022-12-03T19:25:43.992Z,19.28
2022-12-03T19:30:43.999Z,19.03
2022-12-03T19:35:44.009Z,19.51
2022-12-03T19:40:44.031Z,17.19
2022-12-03T19:45:44.015Z,19.52
2022-12-03T19:50:43.992Z,19.37
2022-12-03T19:55:44.016Z,19.69
2022-12-03T20:00:44.025Z,18.69
2022-12-03T20:05:43.991Z,22.2
2022-12-03T20:10:44.019Z,20.07
2022-12-03T20:15:43.988Z,15.94
2022-12-03T20:20:44.000Z,18.31
2022-12-03T20:25:44.037Z,16.34
2022-12-03T20:30:44.013Z,14.9
2022-12-03T20:35:44.052Z,15.33
2022-12-03T20:40:44.012Z,15.42
2022-12-03T20:45:44.106Z,14.53
2022-12-03T20:50:44.012Z,14.06
2022-12-03T20:55:44.021Z,14.77
2022-12-03T21:00:44.023Z,15.18
2022-12-03T21:05:44.017Z,15.78
2022-12-03T21:10:44.022Z,15.19
2022-12-03T21:15:44.020Z,15.06
2022-12-03T21:20:44.034Z,13.24
2022-12-03T21:25:44.033Z,15.6
2022-12-03T21:30:44.040Z,16.12
2022-12-03T21:35:44.031Z,18.38
2022-12-03T21:40:44.026Z,16.53
2022-12-03T21:45:44.098Z,16.63
2022-12-03T21:50:44.035Z,15.79
2022-12-03T21:55:44.031Z,14.2
2022-12-03T22:00:44.069Z,13.91
2022-12-03T22:05:44.048Z,13.49
2022-12-03T22:10:44.044Z,13.92
2022-12-03T22:15:44.080Z,14.5
2022-12-03T22:20:44.046Z,13.43
2022-12-03T22:25:44.057Z,15.37
2022-12-03T22:30:44.140Z,28.04
2022-12-03T22:35:44.076Z,14.67
2022-12-03T22:40:44.048Z,13.68
2022-12-03T22:45:44.064Z,12.84
2022-12-03T22:50:44.060Z,12.4
2022-12-03T22:55:44.045Z,12.28
2022-12-03T23:00:44.112Z,12.19
2022-12-03T23:05:44.062Z,11.94
2022-12-03T23:10:44.066Z,11.95
2022-12-03T23:15:44.112Z,11.94
2022-12-03T23:20:44.104Z,11.94
2022-12-03T23:25:44.072Z,11.8
2022-12-03T23:30:44.223Z,11.41
2022-12-03T23:35:44.065Z,11.95
2022-12-03T23:40:47.808Z,12.45
2022-12-03T23:45:44.076Z,11.24
2022-12-03T23:50:44.116Z,10.62
2022-12-03T23:55:44.073Z,11.61
